Details From PABT - Bettles
To PANI - Aniak
Flight Number -
Tags Decoded
Created
Modified
Stats Distance 451 nm / 835 km
Max Altitude 0 ft / 0 m
Waypoints 6
Social Downloads 1
Likes 0
Share VATSIM

Download

Looking for another format? Having issues loading an existing format? Contact us
Advertisement - Login to hide

Notes

Decoded

Route

PABT MHM VTR ANI NUBDY PANI

ID Type Via Altitude Latitude Longitude Leg Dist Tot Dist Heading (true) Name
O PABT APT - 0 ft / 0 m 66.90794˚ -151.53869˚ - 0 nm - -
MHM NDB - 0 ft / 0 m 63.88389˚ -152.31650˚ 182 nm 182 nm 186° / 186° MINCHUMINA NDB
VTR NDB - 0 ft / 0 m 62.94683˚ -155.55725˚ 103 nm 286 nm 239° / 236° TAKOTNA RIVER NDB
ANI NDB - 0 ft / 0 m 61.59017˚ -159.59792˚ 139 nm 425 nm 236° / 232° ANIAK NDB
NUBDY FIX - 0 ft / 0 m 61.78981˚ -159.70725˚ 12 nm 437 nm 345° / 345° -
O PANI APT - 0 ft / 0 m 61.58585˚ -159.55777˚ 12 nm 450 nm 161° / 161° -

Altitude Profile

Advertisement - Login to hide

Weather


0- 5 10 15 20 25 30 35+ Temperature / ° C

Clouds and Precipitation
Forecast for 2017-12-16 12:00 UTC. Updated 3 minutes ago

Ground ~20,000 ft ~40,000 ft Winds

PABT

Details ICAO PABT (BTT)
Name BETTLES
Region USA (Alaska)
Timezone America/Anchorage (UTC-9.0)
Stats Elevation 644 ft / 196 m (AMSL)
Location 66.913940° -151.529042°
Runways 1
Magnetic Variation 16.436° E

METAR

PABT 160653Z 00000KT 10SM OVC080 M05/M08 A2935 RMK AO2 SLP953 T10501078

Decode

TAF

TAF PABT 160520Z 1606/1706 02008KT P6SM VCSH SCT060 OVC100 FM160700 02006KT 5SM -SN BR BKN015 BKN040 FM161600 02004KT 4SM -SN OVC025 FM162200 03003KT 1 1/2SM -SN BR OVC025

Decode

Departure Runways

ID Width Length Bearing (true) Bearing (mag) Surface Threshold Offset Overrun Length
01 150 ft / 46 m 5,174 ft / 1,577 m 32.24° 15.80° Gravel 0 ft / 0 m 0 ft / 0 m
19 150 ft / 46 m 5,174 ft / 1,577 m 212.26° 195.82° Gravel 0 ft / 0 m 0 ft / 0 m

PANI

Details ICAO PANI (ANI)
Name ANIAK
Region USA (Alaska)
Timezone America/Anchorage (UTC-9.0)
Stats Elevation 88 ft / 27 m (AMSL)
Location 61.581597° -159.543045°
Runways 1
Magnetic Variation 12.548° E

METAR

PANI 160556Z AUTO 12012G16KT 10SM CLR 02/M02 A2895 RMK AO2 SLP773 60000 T00171017 10022 20011 53009 FZRANO

Decode

TAF

Not found

Destination Runways

ID Width Length Bearing (true) Bearing (mag) Surface Threshold Offset Overrun Length
10 151 ft / 46 m 5,982 ft / 1,823 m 121.22° 108.67° Asphalt 0 ft / 0 m 0 ft / 0 m
28 151 ft / 46 m 5,982 ft / 1,823 m 301.24° 288.69° Asphalt 0 ft / 0 m 0 ft / 0 m

Approach Navaids

Runway Type Ident Frequency Range Bearing (true) Bearing (mag) Slope Elevation
10 Localiser IANI 109.70 MHz 18 nm / 33 km 121.25° 108.70° - 88 ft / 27 m (AMSL)
10 Glidescope IANI 109.70 MHz 10 nm / 19 km 121.23° 108.68° 3.00° 88 ft / 27 m (AMSL)
10 DME IANI 109.70 MHz 18 nm / 33 km - - - 88 ft / 27 m (AMSL)

Popular Alternatives